Sds Green — ICOK — position and weather

sailwx.info

Track history (hours):
 
Tides and Currents Weather Stations Pressure Air Temp Water Temp Dewpoint Dewpoint Depression Visibility Wind Speed Wind Dir Waves Ship Positions

Sds Green

Last reported at 2017-Apr-23 16:57 UTC. Time now 2017-Apr-27 18:53 UTC.
Position N 37°44' E 016°06'.

Length 108 m; draft 4.9 m.

Type: Cargo ship. MMSI: 247292200.

Date/timePositionNaut miles runAvg speedWind from/ knotsBaromVisibWave heightAir tempDewpointWater temp
2017-Apr-23 16:57N 37°44' E 016°06'611.4
2017-Apr-23 16:26N 37°39' E 016°02'911.7
2017-Apr-23 15:37N 37°31' E 015°56'211.2
2017-Apr-23 15:29N 37°30' E 015°55'911.2
2017-Apr-23 14:43N 37°23' E 015°49'810.7
2017-Apr-23 14:00N 37°16' E 015°43'6910.9
2017-Apr-23 07:43N 36°25' E 014°47'211.2
2017-Apr-23 07:30N 36°22' E 014°46'611.3
2017-Apr-23 07:00N 36°17' E 014°45'611.2
2017-Apr-23 06:30N 36°12' E 014°43'611.2
2017-Apr-23 05:58N 36°06' E 014°41'511.0
2017-Apr-23 05:30N 36°01' E 014°40'510.9
2017-Apr-23 05:00N 35°55' E 014°38'510.9
2017-Apr-23 04:30N 35°50' E 014°36'1 1.0
2017-Apr-23 03:50N 35°49' E 014°36'0 0.0
2017-Apr-23 03:29N 35°49' E 014°36'0 0.0
2017-Apr-23 02:59N 35°49' E 014°36'0 0.0
2017-Apr-23 02:20N 35°49' E 014°36'0 0.0
2017-Apr-23 01:47N 35°49' E 014°36'0 0.0
2017-Apr-23 01:08N 35°49' E 014°36'0 0.1
2017-Apr-23 00:59N 35°49' E 014°36'0 0.0
2017-Apr-22 23:59N 35°49' E 014°36'0 0.0
2017-Apr-22 23:29N 35°49' E 014°36'0 0.0
2017-Apr-22 22:59N 35°49' E 014°36'1 1.1
2017-Apr-22 22:30N 35°49' E 014°37'4 7.9
2017-Apr-22 22:00N 35°49' E 014°41'11 1.8
2017-Apr-22 15:56N 35°51' E 014°55'0 0.0
2017-Apr-22 13:53N 35°51' E 014°54'0 0.0
2017-Apr-22 13:29N 35°51' E 014°54'0 0.0
2017-Apr-22 11:35N 35°51' E 014°54'0 0.2
2017-Apr-22 11:15N 35°51' E 014°54'5 5.8
2017-Apr-22 10:23N 35°49' E 014°49'411.3
2017-Apr-22 10:00N 35°47' E 014°44'911.5
2017-Apr-22 09:15N 35°44' E 014°34'511.7
2017-Apr-22 08:49N 35°43' E 014°28'411.8
2017-Apr-22 08:30N 35°43' E 014°23'611.6
2017-Apr-22 08:00N 35°44' E 014°16'611.5
2017-Apr-22 07:30N 35°44' E 014°09'611.3
2017-Apr-22 07:00N 35°45' E 014°02'  
2017-Apr-15 11:00N 35°50' E 010°39'3 1.8
2017-Apr-15 09:30N 35°51' E 010°41'9210.2
2017-Apr-15 00:27N 37°19' E 011°14'510.8
2017-Apr-15 00:01N 37°22' E 011°09'610.6
2017-Apr-14 23:26N 37°24' E 011°02'510.4
2017-Apr-14 22:56N 37°25' E 010°56'510.4
2017-Apr-14 22:27N 37°27' E 010°50'6910.4
2017-Apr-14 15:52N 37°39' E 009°25'410.8
2017-Apr-14 15:30N 37°40' E 009°20'16610.7
2017-Apr-13 23:57N 38°22' E 005°55'3610.3
2017-Apr-13 20:28N 38°31' E 005°11'510.5
2017-Apr-13 20:00N 38°32' E 005°05'510.6
2017-Apr-13 19:30N 38°33' E 004°58'2610.4
2017-Apr-13 16:58N 38°40' E 004°26'  
Track history (hours):
 
Tides and Currents Weather Stations Pressure Air Temp Water Temp Dewpoint Dewpoint Depression Visibility Wind Speed Wind Dir Waves Ship Positions

Sds Green

Last reported at 2017-Apr-23 16:57 UTC. Time now 2017-Apr-27 18:53 UTC.
Position N 37°44' E 016°06'.

Length 108 m; draft 4.9 m.

Type: Cargo ship. MMSI: 247292200.

Date/timePositionNaut miles runAvg speedWind from/ knotsBaromVisibWave heightAir tempDewpointWater temp
2017-Apr-23 16:57N 37°44' E 016°06'611.4
2017-Apr-23 16:26N 37°39' E 016°02'911.7
2017-Apr-23 15:37N 37°31' E 015°56'211.2
2017-Apr-23 15:29N 37°30' E 015°55'911.2
2017-Apr-23 14:43N 37°23' E 015°49'810.7
2017-Apr-23 14:00N 37°16' E 015°43'6910.9
2017-Apr-23 07:43N 36°25' E 014°47'211.2
2017-Apr-23 07:30N 36°22' E 014°46'611.3
2017-Apr-23 07:00N 36°17' E 014°45'611.2
2017-Apr-23 06:30N 36°12' E 014°43'611.2
2017-Apr-23 05:58N 36°06' E 014°41'511.0
2017-Apr-23 05:30N 36°01' E 014°40'510.9
2017-Apr-23 05:00N 35°55' E 014°38'510.9
2017-Apr-23 04:30N 35°50' E 014°36'1 1.0
2017-Apr-23 03:50N 35°49' E 014°36'0 0.0
2017-Apr-23 03:29N 35°49' E 014°36'0 0.0
2017-Apr-23 02:59N 35°49' E 014°36'0 0.0
2017-Apr-23 02:20N 35°49' E 014°36'0 0.0
2017-Apr-23 01:47N 35°49' E 014°36'0 0.0
2017-Apr-23 01:08N 35°49' E 014°36'0 0.1
2017-Apr-23 00:59N 35°49' E 014°36'0 0.0
2017-Apr-22 23:59N 35°49' E 014°36'0 0.0
2017-Apr-22 23:29N 35°49' E 014°36'0 0.0
2017-Apr-22 22:59N 35°49' E 014°36'1 1.1
2017-Apr-22 22:30N 35°49' E 014°37'4 7.9
2017-Apr-22 22:00N 35°49' E 014°41'11 1.8
2017-Apr-22 15:56N 35°51' E 014°55'0 0.0
2017-Apr-22 13:53N 35°51' E 014°54'0 0.0
2017-Apr-22 13:29N 35°51' E 014°54'0 0.0
2017-Apr-22 11:35N 35°51' E 014°54'0 0.2
2017-Apr-22 11:15N 35°51' E 014°54'5 5.8
2017-Apr-22 10:23N 35°49' E 014°49'411.3
2017-Apr-22 10:00N 35°47' E 014°44'911.5
2017-Apr-22 09:15N 35°44' E 014°34'511.7
2017-Apr-22 08:49N 35°43' E 014°28'411.8
2017-Apr-22 08:30N 35°43' E 014°23'611.6
2017-Apr-22 08:00N 35°44' E 014°16'611.5
2017-Apr-22 07:30N 35°44' E 014°09'611.3
2017-Apr-22 07:00N 35°45' E 014°02'  
2017-Apr-15 11:00N 35°50' E 010°39'3 1.8
2017-Apr-15 09:30N 35°51' E 010°41'9210.2
2017-Apr-15 00:27N 37°19' E 011°14'510.8
2017-Apr-15 00:01N 37°22' E 011°09'610.6
2017-Apr-14 23:26N 37°24' E 011°02'510.4
2017-Apr-14 22:56N 37°25' E 010°56'510.4
2017-Apr-14 22:27N 37°27' E 010°50'6910.4
2017-Apr-14 15:52N 37°39' E 009°25'410.8
2017-Apr-14 15:30N 37°40' E 009°20'16610.7
2017-Apr-13 23:57N 38°22' E 005°55'3610.3
2017-Apr-13 20:28N 38°31' E 005°11'510.5
2017-Apr-13 20:00N 38°32' E 005°05'510.6
2017-Apr-13 19:30N 38°33' E 004°58'2610.4
2017-Apr-13 16:58N 38°40' E 004°26'  

Dump ship's entire track history